sensor_id;sensor_type;location;lat;lon;timestamp;P1;durP1;ratioP1;P2;durP2;ratioP2
50086;SDS011;35967;50.718;7.050;2023-06-22T00:04:05;9.63;;;3.55;;
50086;SDS011;35967;50.718;7.050;2023-06-22T00:14:08;6.90;;;3.03;;
50086;SDS011;35967;50.718;7.050;2023-06-22T00:24:16;4.82;;;3.15;;
50086;SDS011;35967;50.718;7.050;2023-06-22T00:34:18;10.93;;;3.88;;
50086;SDS011;35967;50.718;7.050;2023-06-22T00:44:23;8.75;;;3.33;;
50086;SDS011;35967;50.718;7.050;2023-06-22T00:54:26;9.20;;;3.35;;
50086;SDS011;35967;50.718;7.050;2023-06-22T01:04:35;8.50;;;3.60;;
50086;SDS011;35967;50.718;7.050;2023-06-22T01:14:41;11.35;;;4.00;;
50086;SDS011;35967;50.718;7.050;2023-06-22T01:24:57;9.80;;;4.05;;
50086;SDS011;35967;50.718;7.050;2023-06-22T01:35:07;8.68;;;3.70;;
50086;SDS011;35967;50.718;7.050;2023-06-22T01:45:12;8.80;;;3.90;;
50086;SDS011;35967;50.718;7.050;2023-06-22T01:55:18;9.70;;;3.88;;
50086;SDS011;35967;50.718;7.050;2023-06-22T02:15:29;10.20;;;3.50;;
50086;SDS011;35967;50.718;7.050;2023-06-22T02:25:33;6.38;;;3.58;;
50086;SDS011;35967;50.718;7.050;2023-06-22T02:35:38;7.45;;;3.55;;
50086;SDS011;35967;50.718;7.050;2023-06-22T02:45:42;6.72;;;4.65;;
50086;SDS011;35967;50.718;7.050;2023-06-22T02:55:47;10.80;;;4.53;;
50086;SDS011;35967;50.718;7.050;2023-06-22T03:05:50;11.32;;;5.47;;
50086;SDS011;35967;50.718;7.050;2023-06-22T03:15:58;15.32;;;5.78;;
50086;SDS011;35967;50.718;7.050;2023-06-22T03:26:02;10.98;;;6.85;;
50086;SDS011;35967;50.718;7.050;2023-06-22T03:36:07;9.93;;;6.25;;
50086;SDS011;35967;50.718;7.050;2023-06-22T03:46:10;11.07;;;6.25;;
50086;SDS011;35967;50.718;7.050;2023-06-22T03:56:16;13.55;;;5.93;;
50086;SDS011;35967;50.718;7.050;2023-06-22T04:06:21;10.45;;;6.32;;
50086;SDS011;35967;50.718;7.050;2023-06-22T04:16:26;17.25;;;6.50;;
50086;SDS011;35967;50.718;7.050;2023-06-22T04:26:29;12.43;;;6.70;;
50086;SDS011;35967;50.718;7.050;2023-06-22T04:36:40;11.48;;;6.65;;
50086;SDS011;35967;50.718;7.050;2023-06-22T04:46:43;8.67;;;6.00;;
50086;SDS011;35967;50.718;7.050;2023-06-22T04:56:48;11.70;;;6.65;;
50086;SDS011;35967;50.718;7.050;2023-06-22T05:06:58;14.52;;;8.20;;
50086;SDS011;35967;50.718;7.050;2023-06-22T05:17:03;14.68;;;9.73;;
50086;SDS011;35967;50.718;7.050;2023-06-22T05:27:16;13.30;;;7.63;;
50086;SDS011;35967;50.718;7.050;2023-06-22T05:37:21;15.88;;;7.32;;
50086;SDS011;35967;50.718;7.050;2023-06-22T05:47:24;8.57;;;5.53;;
50086;SDS011;35967;50.718;7.050;2023-06-22T05:57:29;14.60;;;4.85;;
50086;SDS011;35967;50.718;7.050;2023-06-22T06:07:32;9.82;;;6.10;;
50086;SDS011;35967;50.718;7.050;2023-06-22T06:41:42;8.88;;;6.15;;
50086;SDS011;35967;50.718;7.050;2023-06-22T06:51:49;9.13;;;6.45;;
50086;SDS011;35967;50.718;7.050;2023-06-22T07:01:53;16.60;;;8.52;;
50086;SDS011;35967;50.718;7.050;2023-06-22T07:11:57;12.35;;;8.68;;
50086;SDS011;35967;50.718;7.050;2023-06-22T07:22:01;11.10;;;7.22;;
50086;SDS011;35967;50.718;7.050;2023-06-22T07:32:05;12.35;;;8.68;;
50086;SDS011;35967;50.718;7.050;2023-06-22T07:42:09;13.90;;;8.43;;
50086;SDS011;35967;50.718;7.050;2023-06-22T07:52:13;15.35;;;8.05;;
50086;SDS011;35967;50.718;7.050;2023-06-22T08:02:17;8.52;;;6.80;;
50086;SDS011;35967;50.718;7.050;2023-06-22T08:12:21;11.73;;;5.77;;
50086;SDS011;35967;50.718;7.050;2023-06-22T08:22:25;8.13;;;6.03;;
50086;SDS011;35967;50.718;7.050;2023-06-22T08:32:28;7.37;;;5.87;;
50086;SDS011;35967;50.718;7.050;2023-06-22T08:42:36;8.02;;;5.72;;
50086;SDS011;35967;50.718;7.050;2023-06-22T09:02:46;8.77;;;5.57;;
50086;SDS011;35967;50.718;7.050;2023-06-22T09:12:50;7.03;;;5.40;;
50086;SDS011;35967;50.718;7.050;2023-06-22T09:22:54;7.10;;;5.43;;
50086;SDS011;35967;50.718;7.050;2023-06-22T09:32:57;5.93;;;4.87;;
50086;SDS011;35967;50.718;7.050;2023-06-22T09:43:03;8.80;;;5.10;;
50086;SDS011;35967;50.718;7.050;2023-06-22T09:53:06;6.40;;;5.55;;
50086;SDS011;35967;50.718;7.050;2023-06-22T10:03:11;10.17;;;5.40;;
50086;SDS011;35967;50.718;7.050;2023-06-22T10:13:15;11.73;;;5.82;;
50086;SDS011;35967;50.718;7.050;2023-06-22T10:23:20;7.85;;;6.20;;
50086;SDS011;35967;50.718;7.050;2023-06-22T10:33:24;15.02;;;6.43;;
50086;SDS011;35967;50.718;7.050;2023-06-22T10:43:28;15.38;;;9.10;;
50086;SDS011;35967;50.718;7.050;2023-06-22T10:53:31;17.17;;;12.17;;
50086;SDS011;35967;50.718;7.050;2023-06-22T11:03:36;26.58;;;14.77;;
50086;SDS011;35967;50.718;7.050;2023-06-22T11:13:40;19.37;;;14.40;;
50086;SDS011;35967;50.718;7.050;2023-06-22T11:23:44;16.27;;;10.88;;
50086;SDS011;35967;50.718;7.050;2023-06-22T11:33:48;13.17;;;11.13;;
50086;SDS011;35967;50.718;7.050;2023-06-22T11:43:52;12.02;;;7.72;;
50086;SDS011;35967;50.718;7.050;2023-06-22T11:53:56;13.90;;;8.63;;
50086;SDS011;35967;50.718;7.050;2023-06-22T12:04:00;12.43;;;9.60;;
50086;SDS011;35967;50.718;7.050;2023-06-22T12:14:08;15.48;;;10.63;;
50086;SDS011;35967;50.718;7.050;2023-06-22T12:24:12;13.43;;;9.68;;
50086;SDS011;35967;50.718;7.050;2023-06-22T12:34:15;7.70;;;6.90;;
50086;SDS011;35967;50.718;7.050;2023-06-22T12:44:20;7.00;;;5.87;;
50086;SDS011;35967;50.718;7.050;2023-06-22T12:54:23;8.02;;;3.60;;
50086;SDS011;35967;50.718;7.050;2023-06-22T13:04:27;6.80;;;3.50;;
50086;SDS011;35967;50.718;7.050;2023-06-22T13:14:31;7.35;;;3.80;;
50086;SDS011;35967;50.718;7.050;2023-06-22T13:24:35;5.30;;;4.10;;
50086;SDS011;35967;50.718;7.050;2023-06-22T13:34:38;7.07;;;4.68;;
50086;SDS011;35967;50.718;7.050;2023-06-22T13:44:43;3.85;;;2.28;;
50086;SDS011;35967;50.718;7.050;2023-06-22T13:54:46;4.32;;;2.45;;
50086;SDS011;35967;50.718;7.050;2023-06-22T14:04:50;3.97;;;2.70;;
50086;SDS011;35967;50.718;7.050;2023-06-22T14:14:54;12.00;;;3.53;;
50086;SDS011;35967;50.718;7.050;2023-06-22T14:25:00;6.20;;;3.42;;
50086;SDS011;35967;50.718;7.050;2023-06-22T14:35:04;7.28;;;3.42;;
50086;SDS011;35967;50.718;7.050;2023-06-22T14:45:09;8.95;;;4.72;;
50086;SDS011;35967;50.718;7.050;2023-06-22T15:19:31;10.38;;;7.60;;
50086;SDS011;35967;50.718;7.050;2023-06-22T15:29:35;12.03;;;7.83;;
50086;SDS011;35967;50.718;7.050;2023-06-22T15:39:39;9.85;;;6.68;;
50086;SDS011;35967;50.718;7.050;2023-06-22T15:49:42;8.75;;;5.60;;
50086;SDS011;35967;50.718;7.050;2023-06-22T15:59:47;13.02;;;5.25;;
50086;SDS011;35967;50.718;7.050;2023-06-22T16:09:50;10.38;;;3.63;;
50086;SDS011;35967;50.718;7.050;2023-06-22T16:19:54;12.55;;;3.95;;
50086;SDS011;35967;50.718;7.050;2023-06-22T16:30:00;14.63;;;3.88;;
50086;SDS011;35967;50.718;7.050;2023-06-22T16:40:04;14.30;;;4.55;;
50086;SDS011;35967;50.718;7.050;2023-06-22T16:50:11;10.05;;;4.22;;
50086;SDS011;35967;50.718;7.050;2023-06-22T17:00:15;10.70;;;6.18;;
50086;SDS011;35967;50.718;7.050;2023-06-22T17:10:20;11.70;;;7.30;;
50086;SDS011;35967;50.718;7.050;2023-06-22T17:20:25;10.90;;;7.75;;
50086;SDS011;35967;50.718;7.050;2023-06-22T17:30:32;11.35;;;8.15;;
50086;SDS011;35967;50.718;7.050;2023-06-22T17:40:36;10.13;;;7.60;;
50086;SDS011;35967;50.718;7.050;2023-06-22T17:50:42;13.50;;;7.18;;
50086;SDS011;35967;50.718;7.050;2023-06-22T18:00:47;9.57;;;6.28;;
50086;SDS011;35967;50.718;7.050;2023-06-22T18:10:50;7.33;;;5.40;;
50086;SDS011;35967;50.718;7.050;2023-06-22T18:21:00;8.63;;;4.63;;
50086;SDS011;35967;50.718;7.050;2023-06-22T18:31:06;10.23;;;6.38;;
50086;SDS011;35967;50.718;7.050;2023-06-22T18:41:21;8.50;;;4.68;;
50086;SDS011;35967;50.718;7.050;2023-06-22T18:51:25;12.02;;;7.90;;
50086;SDS011;35967;50.718;7.050;2023-06-22T19:01:29;23.67;;;21.23;;
50086;SDS011;35967;50.718;7.050;2023-06-22T19:11:33;21.05;;;18.90;;
50086;SDS011;35967;50.718;7.050;2023-06-22T19:21:37;15.43;;;13.93;;
50086;SDS011;35967;50.718;7.050;2023-06-22T19:31:42;6.90;;;3.78;;
50086;SDS011;35967;50.718;7.050;2023-06-22T19:41:46;2.13;;;1.40;;
50086;SDS011;35967;50.718;7.050;2023-06-22T19:51:50;4.43;;;1.23;;
50086;SDS011;35967;50.718;7.050;2023-06-22T20:01:54;3.08;;;1.20;;
50086;SDS011;35967;50.718;7.050;2023-06-22T20:11:58;10.37;;;2.90;;
50086;SDS011;35967;50.718;7.050;2023-06-22T20:22:06;6.33;;;4.03;;
50086;SDS011;35967;50.718;7.050;2023-06-22T20:32:09;8.13;;;5.23;;
50086;SDS011;35967;50.718;7.050;2023-06-22T20:42:16;7.13;;;5.67;;
50086;SDS011;35967;50.718;7.050;2023-06-22T20:52:20;8.27;;;5.77;;
50086;SDS011;35967;50.718;7.050;2023-06-22T21:02:24;7.53;;;5.57;;
50086;SDS011;35967;50.718;7.050;2023-06-22T21:12:28;7.97;;;6.40;;
50086;SDS011;35967;50.718;7.050;2023-06-22T21:22:33;9.37;;;6.70;;
50086;SDS011;35967;50.718;7.050;2023-06-22T21:32:38;10.80;;;6.47;;
50086;SDS011;35967;50.718;7.050;2023-06-22T21:42:47;11.07;;;7.87;;
50086;SDS011;35967;50.718;7.050;2023-06-22T21:52:50;9.27;;;7.47;;
50086;SDS011;35967;50.718;7.050;2023-06-22T22:02:54;13.50;;;9.80;;
50086;SDS011;35967;50.718;7.050;2023-06-22T22:12:57;16.43;;;11.27;;
50086;SDS011;35967;50.718;7.050;2023-06-22T22:23:02;14.23;;;10.20;;
50086;SDS011;35967;50.718;7.050;2023-06-22T22:33:05;15.67;;;12.60;;
50086;SDS011;35967;50.718;7.050;2023-06-22T22:43:12;14.97;;;11.17;;
50086;SDS011;35967;50.718;7.050;2023-06-22T22:53:15;15.53;;;12.07;;
50086;SDS011;35967;50.718;7.050;2023-06-22T23:03:20;16.43;;;12.87;;
50086;SDS011;35967;50.718;7.050;2023-06-22T23:13:23;19.80;;;12.53;;
50086;SDS011;35967;50.718;7.050;2023-06-22T23:23:29;21.43;;;13.40;;
50086;SDS011;35967;50.718;7.050;2023-06-22T23:33:34;21.23;;;13.53;;
50086;SDS011;35967;50.718;7.050;2023-06-22T23:43:40;18.70;;;14.30;;
50086;SDS011;35967;50.718;7.050;2023-06-22T23:53:43;24.83;;;16.77;;
